Time;durP1;ratioP1;P1;durP2;ratioP2;P2;SDS_P1;SDS_P2;PMS_P1;PMS_P2;Temp;Humidity;BMP_temperature;BMP_pressure;BME280_temperature;BME280_humidity;BME280_pressure;Samples;Min_cycle;Max_cycle;Signal;HPM_P1;HPM_P2
2024/02/15 00:01:00;;;;;;;0.80;0.63;;;11.00;99.90;;;;;;5140640;27;20195;-68
2024/02/15 00:03:26;;;;;;;1.17;0.60;;;11.10;99.90;;;;;;5141944;27;20480;-69
2024/02/15 00:05:52;;;;;;;1.00;0.60;;;11.00;99.90;;;;;;5138969;27;20234;-68
2024/02/15 00:08:20;;;;;;;1.00;0.70;;;11.00;99.90;;;;;;5138781;27;20266;-68
2024/02/15 00:10:46;;;;;;;1.20;0.80;;;11.00;99.90;;;;;;5139490;27;20860;-69
2024/02/15 00:13:12;;;;;;;1.20;0.90;;;11.00;99.90;;;;;;5137891;27;20449;-68
2024/02/15 00:15:38;;;;;;;1.10;0.80;;;11.00;99.90;;;;;;5138299;27;20436;-69
2024/02/15 00:18:04;;;;;;;1.40;0.97;;;11.00;99.90;;;;;;5137145;27;20839;-68
2024/02/15 00:20:30;;;;;;;1.00;0.80;;;11.00;99.90;;;;;;5136867;27;20192;-68
2024/02/15 00:22:55;;;;;;;1.30;1.00;;;11.00;99.90;;;;;;5136680;27;20870;-68
2024/02/15 00:25:21;;;;;;;1.90;1.33;;;11.00;99.90;;;;;;5137317;27;20269;-68
2024/02/15 00:27:47;;;;;;;2.40;1.63;;;11.00;99.90;;;;;;5137114;27;20453;-68
2024/02/15 00:30:13;;;;;;;1.50;1.27;;;11.00;99.90;;;;;;5137010;27;20192;-69
2024/02/15 00:32:39;;;;;;;1.97;1.53;;;11.00;99.90;;;;;;5137687;27;20228;-67
2024/02/15 00:35:09;;;;;;;3.47;2.00;;;11.00;99.90;;;;;;5137114;27;20417;-67
2024/02/15 00:37:38;;;;;;;2.60;2.20;;;11.00;99.90;;;;;;5136577;27;20194;-68
2024/02/15 00:40:04;;;;;;;2.83;1.93;;;11.00;99.90;;;;;;5137111;27;20417;-69
2024/02/15 00:42:33;;;;;;;2.90;2.30;;;11.00;99.90;;;;;;5137106;27;20448;-69
2024/02/15 00:44:58;;;;;;;2.80;2.00;;;11.00;99.90;;;;;;5137031;27;20441;-68
2024/02/15 00:47:24;;;;;;;3.70;2.50;;;11.00;99.90;;;;;;5136913;27;20483;-68
2024/02/15 00:49:50;;;;;;;2.67;1.80;;;11.00;99.90;;;;;;5137270;27;20191;-69
2024/02/15 00:52:18;;;;;;;3.70;2.43;;;10.90;99.90;;;;;;5136700;27;20236;-68
2024/02/15 00:54:44;;;;;;;3.50;2.23;;;10.90;99.90;;;;;;5136584;27;20275;-67
2024/02/15 00:57:10;;;;;;;3.67;2.90;;;10.90;99.90;;;;;;5137156;27;20428;-67
2024/02/15 00:59:35;;;;;;;3.10;2.50;;;10.90;99.90;;;;;;5136613;27;20405;-68
2024/02/15 01:02:02;;;;;;;3.17;2.20;;;10.90;99.90;;;;;;5136830;27;20473;-69
2024/02/15 01:04:28;;;;;;;3.17;2.40;;;10.90;99.90;;;;;;5136368;27;20181;-68
2024/02/15 01:06:54;;;;;;;2.00;1.60;;;10.90;99.90;;;;;;5136760;27;20452;-67
2024/02/15 01:09:19;;;;;;;2.53;1.70;;;10.90;99.90;;;;;;5137373;27;20398;-68
2024/02/15 01:11:46;;;;;;;2.43;1.90;;;10.90;99.90;;;;;;5136629;27;20700;-68
2024/02/15 01:14:11;;;;;;;1.47;1.37;;;10.90;99.90;;;;;;5136935;27;20218;-69
2024/02/15 01:16:37;;;;;;;2.60;1.90;;;11.00;99.90;;;;;;5135942;27;20461;-68
2024/02/15 01:19:03;;;;;;;3.63;2.13;;;11.00;99.90;;;;;;5137364;27;20591;-67
2024/02/15 01:21:28;;;;;;;3.90;2.77;;;10.90;99.90;;;;;;5136088;27;20578;-66
2024/02/15 01:23:54;;;;;;;4.60;3.30;;;10.90;99.90;;;;;;5136523;27;20415;-69
2024/02/15 01:26:20;;;;;;;4.13;2.80;;;10.90;99.90;;;;;;5136383;27;20199;-68
2024/02/15 01:28:46;;;;;;;3.20;2.90;;;10.90;99.90;;;;;;5136322;27;20240;-67
2024/02/15 01:31:12;;;;;;;5.47;4.40;;;10.90;99.90;;;;;;5136069;27;20433;-68
2024/02/15 01:33:38;;;;;;;5.77;4.20;;;10.90;99.90;;;;;;5134704;27;20196;-68
2024/02/15 01:36:06;;;;;;;7.37;4.90;;;10.90;99.90;;;;;;5136829;27;20440;-68
2024/02/15 01:38:32;;;;;;;8.43;5.07;;;10.90;99.90;;;;;;5136341;27;20262;-68
2024/02/15 01:40:58;;;;;;;7.70;4.93;;;10.80;99.90;;;;;;5136402;27;20501;-68
2024/02/15 01:43:23;;;;;;;8.20;5.63;;;10.80;99.90;;;;;;5135690;27;20297;-67
2024/02/15 01:45:49;;;;;;;5.70;4.37;;;10.80;99.90;;;;;;5136173;27;20203;-68
2024/02/15 01:48:15;;;;;;;5.80;5.10;;;10.80;99.90;;;;;;5135257;27;20213;-67
2024/02/15 01:50:42;;;;;;;8.37;4.83;;;10.80;99.90;;;;;;5135931;27;20215;-67
2024/02/15 01:53:09;;;;;;;8.27;5.10;;;10.80;99.90;;;;;;5136417;27;20416;-67
2024/02/15 01:55:35;;;;;;;6.83;4.03;;;10.80;99.90;;;;;;5129281;27;20445;-68
2024/02/15 01:58:01;;;;;;;6.30;4.33;;;10.80;99.90;;;;;;5129028;27;20429;-67
2024/02/15 02:00:27;;;;;;;5.93;3.80;;;10.80;99.90;;;;;;5126455;27;20265;-69
2024/02/15 02:02:53;;;;;;;5.90;3.90;;;10.80;99.90;;;;;;5127075;27;20480;-68
2024/02/15 02:05:19;;;;;;;4.27;3.00;;;10.80;99.90;;;;;;5116986;27;20582;-68
2024/02/15 02:07:45;;;;;;;5.60;3.60;;;10.80;99.90;;;;;;5135487;27;20521;-67
2024/02/15 02:10:12;;;;;;;5.77;3.97;;;10.80;99.90;;;;;;5135515;27;20417;-68
2024/02/15 02:12:39;;;;;;;5.47;3.77;;;10.80;99.90;;;;;;5135014;27;20557;-68
2024/02/15 02:15:07;;;;;;;5.13;3.90;;;10.80;99.90;;;;;;5135466;27;20405;-68
2024/02/15 02:17:33;;;;;;;6.13;4.40;;;10.80;99.90;;;;;;5136370;27;20460;-67
2024/02/15 02:19:59;;;;;;;4.33;3.40;;;10.80;99.90;;;;;;5133995;27;20464;-68
2024/02/15 02:22:25;;;;;;;5.57;3.83;;;10.80;99.90;;;;;;5134898;27;20890;-68
2024/02/15 02:25:08;;;;;;;7.43;4.60;;;10.80;99.90;;;;;;5134908;27;20217;-69
2024/02/15 02:27:34;;;;;;;5.60;4.17;;;10.90;99.90;;;;;;5134834;27;20219;-67
2024/02/15 02:29:59;;;;;;;4.40;3.60;;;10.80;99.90;;;;;;5135596;27;20408;-67
2024/02/15 02:32:26;;;;;;;4.60;3.87;;;10.80;99.90;;;;;;5135362;27;20773;-67
2024/02/15 02:34:57;;;;;;;5.50;3.83;;;10.80;99.90;;;;;;5134992;27;20322;-67
2024/02/15 02:37:24;;;;;;;6.47;4.33;;;10.80;99.90;;;;;;5135741;27;20693;-67
2024/02/15 02:39:49;;;;;;;6.90;4.40;;;10.80;99.90;;;;;;5135446;27;20425;-67
2024/02/15 02:42:15;;;;;;;6.70;4.30;;;10.80;99.90;;;;;;5134750;27;20452;-67
2024/02/15 02:44:41;;;;;;;3.40;3.03;;;10.80;99.90;;;;;;5133883;27;20208;-66
2024/02/15 02:47:06;;;;;;;4.70;4.00;;;10.80;99.90;;;;;;5134563;27;20207;-67
2024/02/15 02:49:32;;;;;;;5.90;4.07;;;10.80;99.90;;;;;;5134321;28;20599;-67
2024/02/15 02:51:58;;;;;;;7.80;5.73;;;10.80;99.90;;;;;;5134270;28;20283;-68
2024/02/15 02:54:23;;;;;;;8.83;6.47;;;10.80;99.90;;;;;;5134576;28;20488;-68
2024/02/15 02:56:49;;;;;;;12.50;6.20;;;10.80;99.90;;;;;;5134845;28;20726;-68
2024/02/15 02:59:16;;;;;;;9.17;5.83;;;10.70;99.90;;;;;;5134614;28;20275;-68
2024/02/15 03:01:42;;;;;;;11.93;6.40;;;10.70;99.90;;;;;;5134737;28;20202;-67
2024/02/15 03:04:08;;;;;;;10.90;6.17;;;10.70;99.90;;;;;;5134512;28;20757;-69
2024/02/15 03:06:34;;;;;;;9.20;6.50;;;10.70;99.90;;;;;;5134548;28;20458;-67
2024/02/15 03:08:59;;;;;;;14.10;6.20;;;10.60;99.90;;;;;;5134034;28;20561;-68
2024/02/15 03:11:25;;;;;;;10.10;6.20;;;10.60;99.90;;;;;;5134247;28;20444;-67
2024/02/15 03:13:51;;;;;;;6.90;5.77;;;10.60;99.90;;;;;;5134915;28;20216;-67
2024/02/15 03:16:16;;;;;;;10.90;5.67;;;10.60;99.90;;;;;;5138025;28;20203;-65
2024/02/15 03:18:43;;;;;;;8.60;5.57;;;10.60;99.90;;;;;;5138439;28;20203;-67
2024/02/15 03:21:11;;;;;;;10.00;5.90;;;10.60;99.90;;;;;;5137218;28;20237;-67
2024/02/15 03:23:37;;;;;;;9.40;6.17;;;10.60;99.90;;;;;;5137906;28;20831;-67
2024/02/15 03:26:06;;;;;;;10.87;6.13;;;10.60;99.90;;;;;;5138531;28;20424;-68
2024/02/15 03:28:32;;;;;;;8.50;6.30;;;10.60;99.90;;;;;;5134157;28;20216;-67
2024/02/15 03:31:00;;;;;;;15.60;7.50;;;10.60;99.90;;;;;;5134254;28;20939;-67
2024/02/15 03:33:28;;;;;;;12.07;6.50;;;10.60;99.90;;;;;;5133841;28;20435;-67
2024/02/15 03:35:54;;;;;;;12.33;6.23;;;10.60;99.90;;;;;;5133803;28;20440;-68
2024/02/15 03:38:20;;;;;;;8.97;5.83;;;10.60;99.90;;;;;;5134267;28;20417;-66
2024/02/15 03:40:45;;;;;;;13.93;5.90;;;10.60;99.90;;;;;;5133836;28;20191;-67
2024/02/15 03:43:11;;;;;;;9.23;5.30;;;10.60;99.90;;;;;;5134014;28;20226;-66
2024/02/15 03:45:36;;;;;;;9.47;5.50;;;10.50;99.90;;;;;;5134745;28;20298;-67
2024/02/15 03:48:05;;;;;;;9.70;5.43;;;10.50;99.90;;;;;;5133587;28;20228;-67
2024/02/15 03:50:32;;;;;;;10.10;5.57;;;10.50;99.90;;;;;;5133910;28;20474;-68
2024/02/15 03:52:59;;;;;;;7.43;4.90;;;10.60;99.90;;;;;;5134256;28;20413;-67
2024/02/15 03:55:25;;;;;;;13.40;5.50;;;10.60;99.90;;;;;;5115554;28;20413;-68
2024/02/15 03:57:52;;;;;;;9.67;5.83;;;10.60;99.90;;;;;;5137661;27;20451;-68
2024/02/15 04:00:20;;;;;;;10.37;6.30;;;10.60;99.90;;;;;;5140186;27;20659;-67
2024/02/15 04:02:48;;;;;;;9.37;6.50;;;10.60;99.90;;;;;;5140334;27;20421;-68
2024/02/15 04:05:14;;;;;;;12.70;6.40;;;10.60;99.90;;;;;;5139839;27;20430;-68
2024/02/15 04:07:40;;;;;;;12.03;5.80;;;10.60;99.90;;;;;;5140599;27;20586;-67
2024/02/15 04:10:06;;;;;;;9.60;5.10;;;10.60;99.90;;;;;;5152114;27;20420;-68
2024/02/15 04:12:33;;;;;;;7.30;5.40;;;10.60;99.90;;;;;;5121890;27;20191;-67
2024/02/15 04:15:11;;;;;;;8.60;5.40;;;10.50;99.90;;;;;;5138851;27;20889;-67
2024/02/15 04:17:40;;;;;;;8.40;5.30;;;10.50;99.90;;;;;;5155576;27;20828;-69
2024/02/15 04:20:07;;;;;;;9.67;4.93;;;10.50;99.90;;;;;;5121455;27;20517;-68
2024/02/15 04:22:37;;;;;;;11.00;5.37;;;10.50;99.90;;;;;;5148172;27;20413;-68
2024/02/15 04:25:09;;;;;;;7.40;5.43;;;10.50;99.90;;;;;;5108820;28;20849;-67
2024/02/15 04:27:38;;;;;;;7.57;4.73;;;10.50;99.90;;;;;;5146473;27;20523;-70
2024/02/15 04:30:04;;;;;;;9.47;5.03;;;10.50;99.90;;;;;;5132150;27;20500;-73
2024/02/15 04:32:33;;;;;;;15.23;6.53;;;10.60;99.90;;;;;;5137495;27;20684;-68
2024/02/15 04:34:59;;;;;;;8.37;5.80;;;10.60;99.90;;;;;;5123773;27;20412;-68
2024/02/15 04:37:27;;;;;;;7.50;4.43;;;10.60;99.90;;;;;;5138469;27;20527;-69
2024/02/15 04:39:52;;;;;;;10.10;5.00;;;10.60;99.90;;;;;;5139143;27;20422;-67
2024/02/15 04:42:18;;;;;;;4.80;3.90;;;10.60;99.90;;;;;;5128030;27;20574;-69
2024/02/15 04:44:44;;;;;;;8.70;5.23;;;10.60;99.90;;;;;;5154662;27;20183;-70
2024/02/15 04:47:10;;;;;;;7.40;4.73;;;10.60;99.90;;;;;;5142621;27;20482;-67
2024/02/15 04:49:37;;;;;;;5.37;4.13;;;10.70;99.90;;;;;;5140962;27;20185;-69
2024/02/15 04:52:04;;;;;;;5.20;3.80;;;10.70;99.90;;;;;;5138947;27;20184;-68
2024/02/15 04:54:30;;;;;;;8.57;4.27;;;10.70;99.90;;;;;;5139545;27;20893;-68
2024/02/15 04:56:56;;;;;;;6.40;4.57;;;10.80;99.90;;;;;;5138537;27;20512;-67
2024/02/15 04:59:25;;;;;;;6.83;4.37;;;10.70;99.90;;;;;;5137848;27;20420;-67
2024/02/15 05:01:56;;;;;;;6.17;3.73;;;10.70;99.90;;;;;;5138823;27;20417;-69
2024/02/15 05:04:22;;;;;;;6.20;3.17;;;10.70;99.90;;;;;;5137665;27;20420;-67
2024/02/15 05:06:48;;;;;;;4.30;3.30;;;10.70;99.90;;;;;;5137952;27;20903;-69
2024/02/15 05:09:18;;;;;;;9.03;4.47;;;10.70;99.90;;;;;;5137937;27;20428;-69
2024/02/15 05:11:48;;;;;;;8.57;4.30;;;10.70;99.90;;;;;;5138426;27;20481;-67
2024/02/15 05:14:19;;;;;;;5.73;4.13;;;10.80;99.90;;;;;;5139233;27;20416;-69
2024/02/15 05:16:48;;;;;;;7.27;4.37;;;10.80;99.90;;;;;;5138051;27;20429;-68
2024/02/15 05:19:15;;;;;;;8.77;4.73;;;10.80;99.90;;;;;;5137253;27;20444;-67
2024/02/15 05:21:44;;;;;;;6.80;5.00;;;10.80;99.90;;;;;;5137607;27;20465;-68
2024/02/15 05:24:13;;;;;;;8.53;4.53;;;10.80;99.90;;;;;;5138019;27;20416;-67
2024/02/15 05:26:48;;;;;;;11.63;5.37;;;10.80;99.90;;;;;;5137903;27;20460;-69
2024/02/15 05:29:15;;;;;;;6.07;4.93;;;10.80;99.90;;;;;;5139636;27;20419;-69
2024/02/15 05:31:40;;;;;;;6.37;4.80;;;10.80;99.90;;;;;;5143682;27;20398;-67
2024/02/15 05:34:08;;;;;;;6.63;4.20;;;10.80;99.90;;;;;;5141459;27;20685;-68
2024/02/15 05:36:33;;;;;;;11.33;5.03;;;10.80;99.90;;;;;;5137608;27;20202;-69
2024/02/15 05:38:59;;;;;;;5.87;4.40;;;10.80;99.90;;;;;;5137935;27;20474;-68
2024/02/15 05:41:25;;;;;;;10.60;4.97;;;10.80;99.90;;;;;;5138496;27;20228;-69
2024/02/15 05:43:54;;;;;;;6.90;4.40;;;10.80;99.90;;;;;;5138318;27;20430;-69
2024/02/15 05:46:21;;;;;;;5.10;3.90;;;10.90;99.90;;;;;;5137857;27;20349;-68
2024/02/15 05:48:47;;;;;;;7.40;4.70;;;10.90;99.90;;;;;;5126433;27;20540;-68
2024/02/15 05:51:12;;;;;;;7.20;3.80;;;11.00;99.90;;;;;;5137860;27;20215;-67
2024/02/15 05:53:38;;;;;;;5.33;3.50;;;11.00;99.90;;;;;;5138284;27;20233;-68
2024/02/15 05:56:10;;;;;;;6.23;4.10;;;11.00;99.90;;;;;;5139646;27;20193;-68
2024/02/15 05:58:36;;;;;;;5.53;4.20;;;11.00;99.90;;;;;;5139951;27;20298;-69
2024/02/15 06:01:06;;;;;;;6.43;4.33;;;11.00;99.90;;;;;;5140549;27;20424;-68
2024/02/15 06:03:33;;;;;;;9.40;4.83;;;11.00;99.90;;;;;;5138869;27;20462;-68
2024/02/15 06:06:01;;;;;;;7.10;3.87;;;11.10;99.90;;;;;;5140164;27;20637;-67
2024/02/15 06:08:30;;;;;;;6.47;4.17;;;11.10;99.90;;;;;;5140506;27;20456;-68
2024/02/15 06:10:56;;;;;;;4.10;3.47;;;11.10;99.90;;;;;;5141621;27;20414;-69
2024/02/15 06:13:23;;;;;;;6.63;3.80;;;11.10;99.90;;;;;;5141442;27;20499;-67
2024/02/15 06:15:52;;;;;;;5.10;4.17;;;11.10;99.90;;;;;;5137539;27;20442;-69
2024/02/15 06:18:27;;;;;;;6.80;4.00;;;11.10;99.90;;;;;;5119037;27;20592;-69
2024/02/15 06:21:02;;;;;;;8.10;4.87;;;11.10;99.90;;;;;;5136849;27;20586;-68
2024/02/15 06:23:28;;;;;;;12.13;5.50;;;11.20;99.90;;;;;;5137614;27;20475;-68
2024/02/15 06:25:58;;;;;;;9.40;5.90;;;11.20;99.90;;;;;;5138095;27;20626;-69
2024/02/15 06:39:45;;;;;;;15.27;5.67;;;11.40;99.90;;;;;;5135943;27;20441;-69
2024/02/15 06:42:16;;;;;;;7.50;4.93;;;11.40;99.90;;;;;;5138085;27;20785;-70
2024/02/15 06:44:46;;;;;;;9.30;5.80;;;11.40;99.90;;;;;;5140063;27;20726;-70
2024/02/15 06:47:13;;;;;;;5.80;4.90;;;11.40;99.90;;;;;;5137797;27;20544;-70
2024/02/15 06:49:39;;;;;;;11.33;5.47;;;11.40;99.90;;;;;;5137186;27;20463;-69
2024/02/15 06:52:09;;;;;;;8.50;5.00;;;11.40;99.90;;;;;;5138381;27;20416;-70
2024/02/15 06:54:38;;;;;;;7.90;4.80;;;11.40;99.90;;;;;;5138175;28;20401;-69
2024/02/15 06:57:05;;;;;;;6.23;5.00;;;11.40;99.90;;;;;;5131721;28;20695;-70
2024/02/15 06:59:34;;;;;;;7.53;4.60;;;11.40;99.90;;;;;;5139875;28;20421;-70
2024/02/15 07:02:01;;;;;;;10.27;4.30;;;11.40;99.90;;;;;;5133569;28;20423;-71
2024/02/15 07:04:26;;;;;;;10.63;4.43;;;11.50;99.90;;;;;;5137220;28;20519;-71
2024/02/15 07:06:54;;;;;;;9.77;5.30;;;11.50;99.90;;;;;;5137590;28;20519;-68
2024/02/15 07:09:21;;;;;;;6.50;4.93;;;11.50;99.90;;;;;;5138015;28;20237;-70
2024/02/15 07:11:47;;;;;;;13.97;6.80;;;11.50;99.90;;;;;;5137850;28;20423;-68
2024/02/15 07:14:13;;;;;;;7.33;5.23;;;11.50;99.90;;;;;;5138176;28;20681;-69
2024/02/15 07:16:39;;;;;;;9.93;5.03;;;11.50;99.90;;;;;;5137747;28;20532;-70
2024/02/15 07:19:05;;;;;;;10.03;4.60;;;11.50;99.90;;;;;;5137483;28;20885;-69
2024/02/15 07:21:31;;;;;;;7.33;4.60;;;11.40;99.90;;;;;;5137728;28;20446;-69
2024/02/15 07:23:57;;;;;;;8.97;5.50;;;11.40;99.90;;;;;;5137513;28;20413;-69
2024/02/15 07:26:26;;;;;;;10.70;5.63;;;11.40;99.90;;;;;;5138030;28;20689;-70
2024/02/15 07:28:55;;;;;;;7.20;4.30;;;11.40;99.90;;;;;;5137061;28;20257;-68
2024/02/15 07:31:23;;;;;;;8.57;5.00;;;11.40;99.90;;;;;;5139294;27;20408;-69
2024/02/15 07:33:53;;;;;;;8.33;5.20;;;11.40;99.90;;;;;;5141758;27;20412;-69
2024/02/15 07:36:22;;;;;;;8.80;5.97;;;11.40;99.90;;;;;;5139734;27;20429;-70
2024/02/15 07:38:49;;;;;;;7.33;5.00;;;11.50;99.90;;;;;;5142406;27;20416;-70
2024/02/15 07:41:17;;;;;;;7.90;4.90;;;11.50;99.90;;;;;;5143012;27;20439;-71
2024/02/15 07:43:44;;;;;;;9.13;5.00;;;11.60;99.90;;;;;;5142222;27;20417;-70
2024/02/15 07:46:14;;;;;;;6.53;4.80;;;11.60;99.90;;;;;;5141478;27;20440;-70
2024/02/15 07:48:44;;;;;;;13.03;5.87;;;11.70;99.90;;;;;;5144371;27;20473;-71
2024/02/15 07:51:11;;;;;;;10.10;5.87;;;11.70;99.90;;;;;;5142035;27;20812;-71
2024/02/15 07:53:37;;;;;;;9.17;5.53;;;11.70;99.90;;;;;;5127076;27;20407;-69
2024/02/15 07:56:02;;;;;;;8.73;5.73;;;11.70;99.90;;;;;;5144310;27;20432;-67
2024/02/15 07:58:28;;;;;;;6.20;4.93;;;11.80;99.90;;;;;;5142777;27;20202;-69
2024/02/15 08:00:53;;;;;;;11.27;5.03;;;11.80;99.90;;;;;;5124376;27;20234;-71
2024/02/15 08:03:20;;;;;;;11.43;5.53;;;11.80;99.90;;;;;;5141823;27;20187;-71
2024/02/15 08:05:45;;;;;;;11.33;5.70;;;11.80;99.90;;;;;;5141222;27;20216;-73
2024/02/15 08:08:11;;;;;;;5.70;4.47;;;11.80;99.90;;;;;;5142253;27;20440;-69
2024/02/15 08:10:37;;;;;;;8.33;5.60;;;11.80;99.90;;;;;;5142377;27;20187;-69
2024/02/15 08:13:03;;;;;;;11.63;5.30;;;11.80;99.90;;;;;;5138315;27;20191;-70
2024/02/15 08:15:29;;;;;;;9.40;5.60;;;11.80;99.90;;;;;;5137249;27;20451;-71
2024/02/15 08:17:55;;;;;;;10.30;5.30;;;11.80;99.90;;;;;;5125474;27;20550;-69
2024/02/15 08:20:23;;;;;;;9.67;5.83;;;11.70;99.90;;;;;;5122707;27;20277;-70
2024/02/15 08:22:49;;;;;;;10.63;5.20;;;11.70;99.90;;;;;;5144314;27;20426;-69
2024/02/15 08:25:15;;;;;;;10.40;5.50;;;11.60;99.90;;;;;;5146829;27;20681;-71
2024/02/15 08:27:43;;;;;;;8.23;5.43;;;11.60;99.90;;;;;;5146734;27;20681;-69
2024/02/15 08:30:11;;;;;;;7.87;5.30;;;11.60;99.90;;;;;;5141069;27;20770;-69
2024/02/15 08:32:41;;;;;;;9.47;5.30;;;11.60;99.90;;;;;;5141871;27;20402;-73
2024/02/15 08:35:08;;;;;;;13.50;5.33;;;11.60;99.90;;;;;;5124303;27;20405;-70
2024/02/15 08:37:38;;;;;;;12.17;5.63;;;11.60;99.90;;;;;;5142765;27;20874;-69
2024/02/15 08:40:10;;;;;;;10.80;5.70;;;11.60;99.90;;;;;;5142253;27;20423;-73
2024/02/15 08:42:38;;;;;;;9.10;5.30;;;11.60;99.90;;;;;;5141298;27;20740;-70
2024/02/15 08:45:05;;;;;;;8.90;5.30;;;11.60;99.90;;;;;;5142413;27;20468;-70
2024/02/15 08:47:30;;;;;;;8.43;4.60;;;11.50;99.90;;;;;;5125618;27;20452;-68
2024/02/15 08:49:56;;;;;;;9.13;4.40;;;11.50;99.90;;;;;;5141537;27;20529;-71
2024/02/15 08:52:21;;;;;;;12.03;5.17;;;11.40;99.90;;;;;;5139458;27;20185;-69
2024/02/15 08:54:47;;;;;;;9.77;4.90;;;11.50;99.90;;;;;;5141518;27;20221;-70
2024/02/15 08:57:13;;;;;;;17.20;4.90;;;11.50;99.90;;;;;;5142844;27;20463;-68
2024/02/15 08:59:39;;;;;;;8.00;4.43;;;11.50;99.90;;;;;;5141950;27;20231;-70
2024/02/15 09:02:05;;;;;;;6.80;5.20;;;11.60;99.90;;;;;;5142395;27;20188;-70
2024/02/15 09:04:31;;;;;;;10.03;5.60;;;11.70;99.90;;;;;;5137835;27;20413;-70
2024/02/15 09:06:56;;;;;;;7.93;4.77;;;11.80;99.90;;;;;;5106992;27;20804;-71
2024/02/15 09:09:22;;;;;;;7.37;5.00;;;11.90;99.90;;;;;;5146282;27;20577;-72
2024/02/15 09:11:48;;;;;;;6.00;4.47;;;12.00;99.90;;;;;;5144863;27;20181;-70
2024/02/15 09:14:13;;;;;;;11.57;5.03;;;12.10;99.90;;;;;;5127759;27;20179;-74
2024/02/15 09:16:39;;;;;;;6.80;4.70;;;12.20;99.90;;;;;;5143975;27;20243;-71
2024/02/15 09:19:06;;;;;;;9.47;4.43;;;12.30;99.90;;;;;;5141302;27;20195;-68
2024/02/15 09:21:33;;;;;;;10.60;4.80;;;12.40;99.90;;;;;;5139304;27;20192;-73
2024/02/15 09:23:59;;;;;;;6.60;5.03;;;12.60;99.90;;;;;;5141059;27;20412;-74
2024/02/15 09:26:25;;;;;;;5.97;4.20;;;12.70;99.90;;;;;;5143380;27;20436;-73
2024/02/15 09:28:53;;;;;;;6.30;4.60;;;12.80;99.90;;;;;;5123966;27;20424;-71
2024/02/15 09:31:19;;;;;;;9.23;4.13;;;13.00;99.90;;;;;;5142390;27;20411;-73
2024/02/15 09:33:45;;;;;;;11.30;3.03;;;13.10;99.90;;;;;;5144626;27;20417;-71
2024/02/15 09:36:12;;;;;;;7.33;3.00;;;13.20;99.90;;;;;;5147365;27;20685;-72
2024/02/15 09:38:37;;;;;;;7.30;3.03;;;13.30;99.90;;;;;;5141823;27;20436;-73
2024/02/15 09:41:07;;;;;;;7.47;3.47;;;13.30;99.90;;;;;;5124476;27;20701;-74
2024/02/15 09:43:34;;;;;;;6.13;2.67;;;13.30;99.90;;;;;;5143977;27;20210;-74
2024/02/15 09:46:04;;;;;;;5.60;2.90;;;13.40;99.90;;;;;;5145062;27;20441;-73
2024/02/15 09:48:31;;;;;;;5.53;3.50;;;13.50;99.90;;;;;;5144019;27;20456;-73
2024/02/15 09:50:58;;;;;;;8.50;2.77;;;13.70;99.90;;;;;;5143542;27;20438;-73
2024/02/15 09:53:26;;;;;;;4.17;2.50;;;13.80;99.90;;;;;;5128270;27;20415;-73
2024/02/15 09:55:55;;;;;;;5.53;2.70;;;13.90;99.90;;;;;;5109856;27;20432;-73
2024/02/15 09:58:23;;;;;;;5.67;2.73;;;14.00;99.90;;;;;;5138636;27;20462;-75
2024/02/15 10:00:49;;;;;;;8.30;2.67;;;14.10;99.90;;;;;;5145685;27;20469;-75
2024/02/15 10:03:21;;;;;;;3.80;3.13;;;14.20;99.90;;;;;;5098273;27;20415;-76
2024/02/15 10:05:51;;;;;;;2.87;2.13;;;14.30;99.90;;;;;;5145131;27;20434;-72
2024/02/15 10:08:17;;;;;;;3.27;2.50;;;14.40;99.90;;;;;;5107246;27;20786;-71
2024/02/15 10:10:43;;;;;;;5.80;2.83;;;14.50;99.90;;;;;;5142194;27;20415;-75
2024/02/15 10:13:13;;;;;;;4.80;2.27;;;14.50;99.90;;;;;;5141839;27;20235;-74
2024/02/15 10:15:47;;;;;;;7.03;2.73;;;14.50;99.90;;;;;;5140570;27;20267;-72
2024/02/15 10:18:13;;;;;;;5.27;3.10;;;14.50;99.90;;;;;;5142324;27;20492;-75
2024/02/15 10:20:41;;;;;;;5.60;2.23;;;14.50;99.90;;;;;;5140975;27;20412;-71
2024/02/15 10:23:17;;;;;;;6.30;2.20;;;14.40;99.90;;;;;;5140981;27;20194;-72
2024/02/15 10:25:43;;;;;;;8.20;2.35;;;14.50;99.90;;;;;;5141884;27;20421;-72
2024/02/15 10:28:15;;;;;;;2.83;1.63;;;14.40;99.90;;;;;;5142406;27;20191;-71
2024/02/15 10:30:46;;;;;;;9.03;2.60;;;14.40;99.90;;;;;;5138876;27;20886;-70
2024/02/15 10:33:30;;;;;;;2.47;2.10;;;14.40;99.90;;;;;;5142261;27;20752;-75
2024/02/15 10:36:06;;;;;;;4.50;2.57;;;14.50;99.90;;;;;;5142427;27;20441;-72
2024/02/15 10:38:32;;;;;;;4.43;2.30;;;14.60;99.90;;;;;;5141571;27;20584;-71
2024/02/15 10:41:06;;;;;;;4.63;2.30;;;14.70;99.90;;;;;;5142843;27;20423;-71
2024/02/15 10:43:39;;;;;;;5.90;2.37;;;14.80;99.90;;;;;;5107202;28;20233;-70
2024/02/15 10:46:09;;;;;;;4.70;1.80;;;14.90;99.90;;;;;;5140991;27;20445;-73
2024/02/15 10:48:35;;;;;;;6.23;2.70;;;15.00;99.90;;;;;;5138260;27;20490;-71
2024/02/15 10:51:06;;;;;;;5.67;3.17;;;15.10;99.90;;;;;;5126027;28;20521;-73
2024/02/15 10:53:38;;;;;;;8.17;3.40;;;15.10;99.90;;;;;;5123381;28;20418;-72
2024/02/15 10:56:06;;;;;;;5.20;2.23;;;15.20;99.90;;;;;;5144400;28;20450;-70
2024/02/15 10:58:46;;;;;;;6.23;2.30;;;15.20;99.90;;;;;;5129692;28;20530;-70
2024/02/15 11:01:14;;;;;;;5.33;2.50;;;15.30;99.90;;;;;;5142745;28;20428;-71
2024/02/15 11:03:51;;;;;;;5.20;2.57;;;15.30;99.90;;;;;;5118268;28;20417;-70
2024/02/15 11:06:21;;;;;;;3.70;2.27;;;15.30;99.90;;;;;;5142646;27;20459;-70
2024/02/15 11:08:48;;;;;;;5.70;2.70;;;15.40;99.90;;;;;;5139588;27;20528;-70
2024/02/15 11:11:14;;;;;;;4.60;2.77;;;15.40;99.90;;;;;;5144528;27;20734;-69
2024/02/15 11:13:42;;;;;;;3.43;2.17;;;15.50;99.90;;;;;;5129424;27;20425;-71
2024/02/15 11:16:08;;;;;;;3.93;2.40;;;15.50;99.90;;;;;;5129669;27;20433;-71
2024/02/15 11:18:44;;;;;;;3.30;2.00;;;15.50;99.90;;;;;;5152312;27;20433;-70
2024/02/15 11:21:10;;;;;;;5.77;2.30;;;15.60;99.90;;;;;;5127689;27;20194;-69
2024/02/15 11:23:36;;;;;;;4.37;2.10;;;15.70;99.90;;;;;;5144572;27;20488;-70
2024/02/15 11:26:01;;;;;;;4.07;2.33;;;15.80;99.90;;;;;;5127571;27;20510;-70
2024/02/15 11:28:30;;;;;;;5.07;3.23;;;15.90;99.90;;;;;;5144808;27;20207;-72
2024/02/15 11:30:59;;;;;;;5.73;2.60;;;16.00;99.90;;;;;;5145123;27;20183;-70
2024/02/15 11:33:35;;;;;;;5.00;2.73;;;16.10;99.90;;;;;;5143596;27;20424;-69
2024/02/15 11:36:11;;;;;;;4.50;2.70;;;16.10;99.90;;;;;;5143465;27;20898;-70
2024/02/15 11:38:41;;;;;;;5.63;2.70;;;16.10;99.90;;;;;;5138037;27;20424;-73
2024/02/15 11:41:08;;;;;;;4.50;1.97;;;16.10;99.90;;;;;;5124040;27;20423;-70
2024/02/15 11:43:49;;;;;;;4.63;2.43;;;16.20;99.90;;;;;;5145169;27;20517;-67
2024/02/15 11:46:19;;;;;;;3.77;2.17;;;16.20;99.90;;;;;;5144670;27;20464;-68
2024/02/15 11:48:46;;;;;;;3.53;2.27;;;16.20;99.90;;;;;;5143433;27;20753;-70
2024/02/15 11:51:28;;;;;;;4.90;2.57;;;16.20;99.90;;;;;;5124850;27;20437;-70
2024/02/15 11:54:14;;;;;;;6.63;2.50;;;16.20;99.90;;;;;;5108267;27;20705;-70
2024/02/15 11:57:04;;;;;;;5.40;2.67;;;16.20;99.90;;;;;;5139857;27;20490;-68
2024/02/15 11:59:42;;;;;;;3.43;2.60;;;16.20;99.90;;;;;;5142903;27;20430;-71
2024/02/15 12:18:47;;;;;;;6.73;2.70;;;16.40;99.90;;;;;;5141234;27;20420;-69
2024/02/15 12:21:18;;;;;;;3.30;2.57;;;16.50;99.90;;;;;;5143180;27;20455;-72
2024/02/15 12:23:45;;;;;;;6.27;3.00;;;16.50;99.90;;;;;;5144195;27;20405;-71
2024/02/15 12:26:14;;;;;;;4.13;2.07;;;16.60;99.90;;;;;;5141762;27;20516;-74
2024/02/15 12:28:42;;;;;;;3.20;2.30;;;16.70;99.90;;;;;;5141323;27;20473;-69
2024/02/15 12:31:09;;;;;;;7.00;3.30;;;16.80;99.90;;;;;;5142521;27;20420;-69
2024/02/15 12:33:35;;;;;;;3.93;2.87;;;16.90;99.90;;;;;;5123328;27;20417;-70
2024/02/15 12:36:07;;;;;;;5.80;2.87;;;17.00;99.90;;;;;;5141829;27;20510;-70
2024/02/15 12:38:37;;;;;;;6.00;2.53;;;17.00;99.90;;;;;;5142192;27;20250;-71
2024/02/15 12:41:16;;;;;;;6.07;2.70;;;17.00;99.90;;;;;;5133975;27;20447;-68
2024/02/15 12:43:42;;;;;;;4.77;2.40;;;17.00;99.90;;;;;;5142107;27;20443;-69
2024/02/15 12:46:08;;;;;;;5.27;2.73;;;17.00;99.90;;;;;;5141172;27;20527;-70
2024/02/15 12:48:35;;;;;;;4.97;2.60;;;17.00;99.90;;;;;;5141881;27;20278;-69
2024/02/15 12:51:15;;;;;;;4.77;2.67;;;17.00;99.90;;;;;;5144905;27;20433;-71
2024/02/15 12:53:42;;;;;;;4.10;2.50;;;17.00;99.90;;;;;;5145007;27;20408;-72
2024/02/15 12:56:09;;;;;;;6.30;2.00;;;17.00;99.90;;;;;;5145468;27;20440;-74
2024/02/15 12:58:35;;;;;;;6.00;2.00;;;16.90;99.90;;;;;;5144122;27;20432;-69
2024/02/15 13:01:01;;;;;;;5.30;2.33;;;17.00;99.90;;;;;;5130514;27;20431;-71
2024/02/15 13:03:27;;;;;;;8.10;3.00;;;16.90;99.90;;;;;;5144358;27;20424;-72
2024/02/15 13:05:53;;;;;;;6.13;2.43;;;16.90;99.90;;;;;;5125546;27;20463;-70
2024/02/15 13:08:19;;;;;;;3.87;2.20;;;16.80;99.90;;;;;;5140516;27;20315;-72
2024/02/15 13:10:46;;;;;;;4.80;3.20;;;16.70;99.90;;;;;;5143825;27;20674;-72
2024/02/15 13:13:16;;;;;;;6.53;2.93;;;16.80;99.90;;;;;;5144435;27;20412;-73
2024/02/15 13:15:42;;;;;;;5.20;2.57;;;16.80;99.90;;;;;;5142817;27;20957;-70